ROMMA est une association bénévole à but non lucratif. Votre soutien est indispensable : ADHERER à ROMMA ou FAIRE un DON

Miribel-les-Echelles - (38, Isère)

Massif de la Chartreuse (760 m)   Longitude: 05° 41' 54'' E   Latitude: 45° 26' 40'' N Station partenaire n°22
 

Détail journalier du     <<     >>

Température Precipitation Humidité Pression Vent Dir Rafale Dir. rafale Ensol.
Heure (°C) (mm) (%) (hPa) (km/h) (km/h) (min)
01:00 13.409610205SSE23S0
02:00 13.4093101911SO21SO0
03:00 13.1095101910SO21SO0
04:00 13.209510184S16SO0
05:00 13.309510187SO24OSO0
06:00 13.209510186SO18SO0
07:00 13.309610176S24SSE0
08:00 13.109610176SSO26SO0
09:00 13.309510185SSO16SO0
10:00 13.609510185SO21SO30
11:00 15.309010196S27SO30
12:00 16.308710194NE18SO60
13:00 16.708810193ENE15NNE60
14:00 18.008410183ENE15ENE60
15:00 19.607210176NE26OSO60
16:00 19.3070101712OSO34SO60
17:00 18.607210174SE18SO60
18:00 17.1077101711SO24SO60
19:00 15.408110173O15SO30
20:00 14.008610171OSO10SO0
21:00 13.0090101703OSO0
22:00 13.0091101803OSO0
23:00 12.9093101905SE0
minuit 13.6094101906S0

Graphique du 13-10-2019

 

Serveur OMMA